createdAt,value
2023-04-15T00:00:46.878Z,2.05
2023-04-15T00:03:51.289Z,1.77
2023-04-15T00:06:54.820Z,1.80
2023-04-15T00:09:57.925Z,2.17
2023-04-15T00:16:02.346Z,1.85
2023-04-15T00:19:05.002Z,1.70
2023-04-15T00:22:07.203Z,1.88
2023-04-15T00:25:09.639Z,1.77
2023-04-15T00:28:11.748Z,2.15
2023-04-15T00:31:14.356Z,2.17
2023-04-15T00:34:16.782Z,1.50
2023-04-15T00:37:18.729Z,2.03
2023-04-15T00:40:21.960Z,1.58
2023-04-15T00:43:26.559Z,1.88
2023-04-15T00:46:31.143Z,1.80
2023-04-15T00:49:33.286Z,2.17
2023-04-15T00:52:37.321Z,1.60
2023-04-15T00:55:40.151Z,2.45
2023-04-15T00:58:42.143Z,2.05
2023-04-15T01:01:44.749Z,1.58
2023-04-15T01:04:47.219Z,2.15
2023-04-15T01:07:49.417Z,1.92
2023-04-15T01:10:51.255Z,2.23
2023-04-15T01:13:55.197Z,1.95
2023-04-15T01:16:57.650Z,2.08
2023-04-15T01:19:59.576Z,2.05
2023-04-15T01:23:01.562Z,1.95
2023-04-15T01:26:04.221Z,2.00
2023-04-15T01:29:06.825Z,1.88
2023-04-15T01:32:09.099Z,1.60
2023-04-15T01:35:10.991Z,2.08
2023-04-15T01:38:13.711Z,1.70
2023-04-15T01:41:15.658Z,1.98
2023-04-15T01:44:17.710Z,1.85
2023-04-15T01:47:19.674Z,1.73
2023-04-15T01:50:22.676Z,1.92
2023-04-15T01:53:27.678Z,2.00
2023-04-15T01:56:29.955Z,2.00
2023-04-15T01:59:32.289Z,2.60
2023-04-15T02:02:34.668Z,2.20
2023-04-15T02:05:36.720Z,1.88
2023-04-15T02:08:39.287Z,2.03
2023-04-15T02:11:42.644Z,2.00
2023-04-15T02:14:44.459Z,2.10
2023-04-15T02:17:51.078Z,1.90
2023-04-15T02:20:53.267Z,2.00
2023-04-15T02:23:55.115Z,1.97
2023-04-15T02:26:57.546Z,1.73
2023-04-15T02:29:59.469Z,2.10
2023-04-15T02:33:01.989Z,2.00
2023-04-15T02:36:04.480Z,1.85
2023-04-15T02:39:06.447Z,2.03
2023-04-15T02:45:12.998Z,1.80
2023-04-15T02:48:18.145Z,1.83
2023-04-15T02:51:21.705Z,2.03
2023-04-15T02:54:24.891Z,1.77
2023-04-15T03:00:33.488Z,1.75
2023-04-15T03:03:35.573Z,1.60
2023-04-15T03:06:37.652Z,2.00
2023-04-15T03:09:41.318Z,1.80
2023-04-15T03:12:43.774Z,2.08
2023-04-15T03:15:50.863Z,1.75
2023-04-15T03:18:52.839Z,2.42
2023-04-15T03:21:56.388Z,1.38
2023-04-15T03:24:58.503Z,1.88
2023-04-15T03:28:00.790Z,2.20
2023-04-15T03:31:02.737Z,1.90
2023-04-15T03:34:04.719Z,2.03
2023-04-15T03:37:06.890Z,1.92
2023-04-15T03:40:09.864Z,2.00
2023-04-15T03:43:12.305Z,1.83
2023-04-15T03:46:14.246Z,2.35
2023-04-15T03:49:16.446Z,1.92
2023-04-15T03:52:18.392Z,1.88
2023-04-15T03:55:20.773Z,1.85
2023-04-15T03:58:22.667Z,1.95
2023-04-15T04:01:24.677Z,2.10
2023-04-15T04:04:26.837Z,2.10
2023-04-15T04:07:28.983Z,1.75
2023-04-15T04:10:31.087Z,1.90
2023-04-15T04:13:33.086Z,1.80
2023-04-15T04:16:34.962Z,2.25
2023-04-15T04:19:36.902Z,2.03
2023-04-15T04:22:40.195Z,2.00
2023-04-15T04:25:42.554Z,2.03
2023-04-15T04:28:44.432Z,2.15
2023-04-15T04:31:47.059Z,2.08
2023-04-15T04:34:49.008Z,1.95
2023-04-15T04:37:51.035Z,1.80
2023-04-15T04:40:52.974Z,1.87
2023-04-15T04:43:54.892Z,2.15
2023-04-15T04:46:56.767Z,1.80
2023-04-15T04:49:58.654Z,1.70
2023-04-15T04:53:01.261Z,1.90
2023-04-15T04:56:03.658Z,1.70
2023-04-15T04:59:05.976Z,1.98
2023-04-15T05:02:07.943Z,1.90
2023-04-15T05:05:11.820Z,2.33
2023-04-15T05:08:13.712Z,1.95
2023-04-15T05:11:15.606Z,1.98
2023-04-15T05:14:17.573Z,1.92
2023-04-15T05:17:19.396Z,1.95
2023-04-15T05:20:21.447Z,1.95
2023-04-15T05:23:23.450Z,1.97
2023-04-15T05:26:25.439Z,1.92
2023-04-15T05:29:27.461Z,2.45
2023-04-15T05:32:29.382Z,1.92
2023-04-15T05:35:31.326Z,1.90
2023-04-15T05:38:33.365Z,1.60
2023-04-15T05:41:35.313Z,1.90
2023-04-15T05:44:37.238Z,1.70
2023-04-15T05:47:40.226Z,2.03
2023-04-15T05:53:46.046Z,2.00
2023-04-15T05:56:47.987Z,2.00
2023-04-15T05:59:52.441Z,2.20
2023-04-15T06:02:54.944Z,2.15
2023-04-15T06:05:56.834Z,2.00
2023-04-15T06:08:58.769Z,2.05
2023-04-15T06:12:01.988Z,2.00
2023-04-15T06:15:06.741Z,2.17
2023-04-15T06:18:08.597Z,2.00
2023-04-15T06:21:10.707Z,2.30
2023-04-15T06:24:12.936Z,1.87
2023-04-15T06:27:14.863Z,2.05
2023-04-15T06:30:17.162Z,1.83
2023-04-15T06:33:19.050Z,2.25
2023-04-15T06:36:21.224Z,1.92
2023-04-15T06:39:23.143Z,2.00
2023-04-15T06:42:25.133Z,1.92
2023-04-15T06:45:27.451Z,2.25
2023-04-15T06:48:29.430Z,3.47
2023-04-15T06:51:31.643Z,2.28
2023-04-15T06:54:33.557Z,1.90
2023-04-15T06:57:35.463Z,1.60
2023-04-15T07:00:39.334Z,1.60
2023-04-15T07:03:42.108Z,2.03
2023-04-15T07:06:44.703Z,1.90
2023-04-15T07:09:46.654Z,2.10
2023-04-15T07:12:49.408Z,2.00
2023-04-15T07:15:51.374Z,2.10
2023-04-15T07:18:53.220Z,1.88
2023-04-15T07:21:55.150Z,2.28
2023-04-15T07:24:57.051Z,2.15
2023-04-15T07:27:59.050Z,2.22
2023-04-15T07:31:01.223Z,2.47
2023-04-15T07:34:05.259Z,2.20
2023-04-15T07:37:07.429Z,2.25
2023-04-15T07:40:10.170Z,2.37
2023-04-15T07:43:13.565Z,2.42
2023-04-15T07:46:15.636Z,2.13
2023-04-15T07:49:19.417Z,2.43
2023-04-15T07:52:21.242Z,2.17
2023-04-15T07:55:23.603Z,2.13
2023-04-15T07:58:25.862Z,1.98
2023-04-15T08:01:27.853Z,2.40
2023-04-15T08:04:29.962Z,2.03
2023-04-15T08:07:32.732Z,2.42
2023-04-15T08:10:34.811Z,1.98
2023-04-15T08:13:36.656Z,2.00
2023-04-15T08:16:38.715Z,2.08
2023-04-15T08:19:41.050Z,1.90
2023-04-15T08:22:42.845Z,2.53
2023-04-15T08:25:44.744Z,1.83
2023-04-15T08:28:47.157Z,2.03
2023-04-15T08:31:49.173Z,2.30
2023-04-15T08:34:51.112Z,2.30
2023-04-15T08:37:53.003Z,2.45
2023-04-15T08:40:57.369Z,2.10
2023-04-15T08:44:05.189Z,2.30
2023-04-15T08:47:09.470Z,2.47
2023-04-15T08:50:12.011Z,2.30
2023-04-15T08:53:14.983Z,2.25
2023-04-15T08:59:21.407Z,2.00
2023-04-15T09:02:25.860Z,2.60
2023-04-15T09:05:27.840Z,2.30
2023-04-15T09:08:29.646Z,2.20
2023-04-15T09:11:31.599Z,2.05
2023-04-15T09:14:35.022Z,2.67
2023-04-15T09:17:43.194Z,22.85
2023-04-15T09:20:45.066Z,20.52
2023-04-15T09:23:58.506Z,11.95
2023-04-15T09:27:00.655Z,3.70
2023-04-15T09:30:02.484Z,3.40
2023-04-15T09:33:08.966Z,2.40
2023-04-15T09:36:11.021Z,2.28
2023-04-15T09:39:13.224Z,2.10
2023-04-15T09:42:15.236Z,1.88
2023-04-15T09:45:17.247Z,2.40
2023-04-15T09:48:31.174Z,2.00
2023-04-15T09:51:35.833Z,2.38
2023-04-15T09:54:38.806Z,1.90
2023-04-15T09:57:50.080Z,2.00
2023-04-15T10:00:53.300Z,2.10
2023-04-15T10:03:58.009Z,1.92
2023-04-15T10:07:02.225Z,2.40
2023-04-15T10:10:05.522Z,1.92
2023-04-15T10:13:08.265Z,1.80
2023-04-15T10:16:16.278Z,2.00
2023-04-15T10:19:21.969Z,2.20
2023-04-15T10:22:26.506Z,2.08
2023-04-15T10:25:29.639Z,1.60
2023-04-15T10:28:31.731Z,2.15
2023-04-15T10:31:34.257Z,1.90
2023-04-15T10:34:37.193Z,1.83
2023-04-15T10:40:41.242Z,1.50
2023-04-15T10:43:54.194Z,2.17
2023-04-15T10:46:58.941Z,1.77
2023-04-15T10:50:02.482Z,2.17
2023-04-15T10:53:07.458Z,2.22
2023-04-15T10:56:10.628Z,1.80
2023-04-15T10:59:12.520Z,1.80
2023-04-15T11:02:15.616Z,2.25
2023-04-15T11:05:19.059Z,1.70
2023-04-15T11:08:41.079Z,1.90
2023-04-15T11:12:06.257Z,1.90
2023-04-15T11:15:41.776Z,1.90
2023-04-15T11:18:54.343Z,1.80
2023-04-15T11:21:56.962Z,1.70
2023-04-15T11:24:58.824Z,1.80
2023-04-15T11:28:02.224Z,1.95
2023-04-15T11:31:12.022Z,1.98
2023-04-15T11:34:24.149Z,2.20
2023-04-15T11:37:30.438Z,1.98
2023-04-15T11:40:33.592Z,1.83
2023-04-15T11:43:35.657Z,2.20
2023-04-15T11:46:37.494Z,2.53
2023-04-15T11:49:41.680Z,2.13
2023-04-15T11:53:01.499Z,1.92
2023-04-15T11:56:03.430Z,2.38
2023-04-15T11:59:05.326Z,2.07
2023-04-15T12:02:14.363Z,2.40
2023-04-15T12:09:01.290Z,2.20
2023-04-15T12:12:03.353Z,2.45
2023-04-15T12:15:05.680Z,1.90
2023-04-15T12:18:17.881Z,2.15
2023-04-15T12:21:21.176Z,2.22
2023-04-15T12:24:23.613Z,2.28
2023-04-15T12:27:29.270Z,2.25
2023-04-15T12:30:32.457Z,2.15
2023-04-15T12:33:34.966Z,2.60
2023-04-15T12:36:37.334Z,3.17
2023-04-15T12:39:41.591Z,2.28
2023-04-15T12:42:43.465Z,2.83
2023-04-15T12:45:45.321Z,3.25
2023-04-15T12:48:47.589Z,2.50
2023-04-15T12:51:51.140Z,2.08
2023-04-15T12:54:53.715Z,2.70
2023-04-15T12:57:55.554Z,2.67
2023-04-15T13:00:57.551Z,2.50
2023-04-15T13:03:59.589Z,2.00
2023-04-15T13:07:02.508Z,2.33
2023-04-15T13:13:06.387Z,2.13
2023-04-15T13:16:08.488Z,1.97
2023-04-15T13:19:10.418Z,2.22
2023-04-15T13:22:12.596Z,2.28
2023-04-15T13:25:14.553Z,2.53
2023-04-15T13:28:16.509Z,2.50
2023-04-15T13:31:18.461Z,2.20
2023-04-15T13:34:20.385Z,2.23
2023-04-15T13:37:27.412Z,2.13
2023-04-15T13:40:29.361Z,2.45
2023-04-15T13:43:31.842Z,2.60
2023-04-15T13:46:33.888Z,2.03
2023-04-15T13:49:35.763Z,2.47
2023-04-15T13:52:37.736Z,2.25
2023-04-15T13:55:41.800Z,2.30
2023-04-15T13:58:43.822Z,2.40
2023-04-15T14:01:45.783Z,2.03
2023-04-15T14:04:47.707Z,2.40
2023-04-15T14:07:49.656Z,2.28
2023-04-15T14:10:51.573Z,2.40
2023-04-15T14:13:53.434Z,2.20
2023-04-15T14:16:56.749Z,2.35
2023-04-15T14:19:58.751Z,2.30
2023-04-15T14:23:00.990Z,3.07
2023-04-15T14:26:02.862Z,2.50
2023-04-15T14:29:05.136Z,2.90
2023-04-15T14:32:12.310Z,2.53
2023-04-15T14:35:14.816Z,2.30
2023-04-15T14:38:16.993Z,2.20
2023-04-15T14:41:19.728Z,2.88
2023-04-15T14:44:23.095Z,2.38
2023-04-15T14:47:27.070Z,2.40
2023-04-15T14:50:30.664Z,2.63
2023-04-15T14:53:33.251Z,2.65
2023-04-15T14:56:36.350Z,3.42
2023-04-15T14:59:39.669Z,3.50
2023-04-15T15:02:43.197Z,2.60
2023-04-15T15:05:47.796Z,2.65
2023-04-15T15:08:51.352Z,2.60
2023-04-15T15:11:53.710Z,2.85
2023-04-15T15:14:56.367Z,2.15
2023-04-15T15:17:58.973Z,2.20
2023-04-15T15:21:02.685Z,2.05
2023-04-15T15:24:06.588Z,2.25
2023-04-15T15:27:09.701Z,1.75
2023-04-15T15:30:13.502Z,1.95
2023-04-15T15:33:18.507Z,2.38
2023-04-15T15:36:21.905Z,2.55
2023-04-15T15:39:25.363Z,4.53
2023-04-15T15:42:35.058Z,3.70
2023-04-15T15:45:38.677Z,7.03
2023-04-15T15:48:42.093Z,6.22
2023-04-15T15:51:46.436Z,5.25
2023-04-15T15:54:50.372Z,2.88
2023-04-15T15:57:55.092Z,5.60
2023-04-15T16:00:58.757Z,3.92
2023-04-15T16:04:01.763Z,3.03
2023-04-15T16:07:04.539Z,2.80
2023-04-15T16:10:07.081Z,3.85
2023-04-15T16:13:10.408Z,3.33
2023-04-15T16:16:12.493Z,3.75
2023-04-15T16:19:14.410Z,5.40
2023-04-15T16:22:16.419Z,3.40
2023-04-15T16:25:18.584Z,2.27
2023-04-15T16:28:26.456Z,3.45
2023-04-15T16:31:29.060Z,2.67
2023-04-15T16:34:31.102Z,2.93
2023-04-15T16:37:33.417Z,3.00
2023-04-15T16:40:35.306Z,2.45
2023-04-15T16:43:37.265Z,2.63
2023-04-15T16:46:40.875Z,2.40
2023-04-15T16:49:42.996Z,2.70
2023-04-15T16:52:44.855Z,2.63
2023-04-15T16:55:46.806Z,2.38
2023-04-15T16:58:48.711Z,2.33
2023-04-15T17:01:50.817Z,2.27
2023-04-15T17:04:52.746Z,2.50
2023-04-15T17:07:55.240Z,2.30
2023-04-15T17:10:58.220Z,3.15
2023-04-15T17:14:00.125Z,3.97
2023-04-15T17:17:02.088Z,2.80
2023-04-15T17:20:04.633Z,2.33
2023-04-15T17:23:06.669Z,2.47
2023-04-15T17:26:08.751Z,2.10
2023-04-15T17:29:10.632Z,2.37
2023-04-15T17:32:12.611Z,2.20
2023-04-15T17:35:17.054Z,2.10
2023-04-15T17:38:18.920Z,2.10
2023-04-15T17:41:20.860Z,1.60
2023-04-15T17:44:25.073Z,2.33
2023-04-15T17:47:27.962Z,1.88
2023-04-15T17:50:29.966Z,2.22
2023-04-15T17:53:31.885Z,1.90
2023-04-15T17:56:35.263Z,1.90
2023-04-15T17:59:37.285Z,2.08
2023-04-15T18:02:39.788Z,1.73
2023-04-15T18:05:42.786Z,2.05
2023-04-15T18:11:48.452Z,2.15
2023-04-15T18:14:50.629Z,2.25
2023-04-15T18:17:52.710Z,2.20
2023-04-15T18:20:54.633Z,2.25
2023-04-15T18:23:56.623Z,2.45
2023-04-15T18:26:59.296Z,2.37
2023-04-15T18:30:02.478Z,2.10
2023-04-15T18:33:05.575Z,1.80
2023-04-15T18:36:07.649Z,1.90
2023-04-15T18:39:10.129Z,2.10
2023-04-15T18:42:12.209Z,2.00
2023-04-15T18:45:14.328Z,2.03
2023-04-15T18:48:17.696Z,1.77
2023-04-15T18:51:19.683Z,2.00
2023-04-15T18:54:21.755Z,2.10
2023-04-15T18:57:31.268Z,2.20
2023-04-15T19:03:43.499Z,2.00
2023-04-15T19:06:46.649Z,2.50
2023-04-15T19:09:49.125Z,1.90
2023-04-15T19:12:51.076Z,2.00
2023-04-15T19:15:53.063Z,2.20
2023-04-15T19:18:54.968Z,2.30
2023-04-15T19:21:56.855Z,2.17
2023-04-15T19:24:58.897Z,2.13
2023-04-15T19:28:00.770Z,2.20
2023-04-15T19:31:04.065Z,2.00
2023-04-15T19:34:06.456Z,2.20
2023-04-15T19:37:08.428Z,2.28
2023-04-15T19:40:10.719Z,2.23
2023-04-15T19:43:12.678Z,1.88
2023-04-15T19:46:14.727Z,2.00
2023-04-15T19:49:16.893Z,2.35
2023-04-15T19:52:18.818Z,2.70
2023-04-15T19:55:20.994Z,2.15
2023-04-15T19:58:22.877Z,2.10
2023-04-15T20:01:24.751Z,2.15
2023-04-15T20:04:27.449Z,2.00
2023-04-15T20:07:29.449Z,2.13
2023-04-15T20:10:31.907Z,1.85
2023-04-15T20:13:33.919Z,2.17
2023-04-15T20:16:38.331Z,2.05
2023-04-15T20:19:40.257Z,2.10
2023-04-15T20:22:42.467Z,2.47
2023-04-15T20:25:45.458Z,2.20
2023-04-15T20:31:49.200Z,1.83
2023-04-15T20:34:51.300Z,1.73
2023-04-15T20:37:53.390Z,1.95
2023-04-15T20:40:55.279Z,1.87
2023-04-15T20:43:57.114Z,2.53
2023-04-15T20:46:58.950Z,2.15
2023-04-15T20:50:00.998Z,1.83
2023-04-15T20:53:04.461Z,2.20
2023-04-15T20:56:06.575Z,2.08
2023-04-15T20:59:08.488Z,1.90
2023-04-15T21:02:10.689Z,2.10
2023-04-15T21:05:12.644Z,2.00
2023-04-15T21:08:14.581Z,1.80
2023-04-15T21:11:28.421Z,2.17
2023-04-15T21:14:40.665Z,1.98
2023-04-15T21:17:42.665Z,1.75
2023-04-15T21:20:44.673Z,2.20
2023-04-15T21:23:46.609Z,1.90
2023-04-15T21:26:48.560Z,2.10
2023-04-15T21:29:50.471Z,1.90
2023-04-15T21:32:52.398Z,2.35
2023-04-15T21:35:54.698Z,1.73
2023-04-15T21:38:56.604Z,2.00
2023-04-15T21:41:59.623Z,1.90
2023-04-15T21:48:08.044Z,2.10
2023-04-15T21:51:10.514Z,2.40
2023-04-15T21:54:12.353Z,2.38
2023-04-15T21:57:14.308Z,2.00
2023-04-15T22:00:16.564Z,2.10
2023-04-15T22:03:18.705Z,2.20
2023-04-15T22:06:21.153Z,2.75
2023-04-15T22:09:23.090Z,2.25
2023-04-15T22:12:25.021Z,1.95
2023-04-15T22:15:27.498Z,1.92
2023-04-15T22:18:29.302Z,1.98
2023-04-15T22:21:31.976Z,2.20
2023-04-15T22:24:40.452Z,1.92
2023-04-15T22:27:42.644Z,2.22
2023-04-15T22:30:44.553Z,2.33
2023-04-15T22:33:46.482Z,1.92
2023-04-15T22:36:49.391Z,2.25
2023-04-15T22:39:51.998Z,2.20
2023-04-15T22:42:53.884Z,2.55
2023-04-15T22:45:56.697Z,2.22
2023-04-15T22:52:00.713Z,2.10
2023-04-15T22:55:02.709Z,2.70
2023-04-15T22:58:04.686Z,2.20
2023-04-15T23:01:06.617Z,2.00
2023-04-15T23:04:09.522Z,2.55
2023-04-15T23:07:13.013Z,2.25
2023-04-15T23:10:14.877Z,2.27
2023-04-15T23:13:16.742Z,2.15
2023-04-15T23:16:18.800Z,2.50
2023-04-15T23:19:20.818Z,2.23
2023-04-15T23:22:22.742Z,2.20
2023-04-15T23:25:24.582Z,2.47
2023-04-15T23:28:26.444Z,2.47
2023-04-15T23:31:28.332Z,2.20
2023-04-15T23:34:30.298Z,2.40
2023-04-15T23:37:32.196Z,1.95
2023-04-15T23:40:34.171Z,1.90
2023-04-15T23:43:36.157Z,2.55
2023-04-15T23:46:38.064Z,2.33
2023-04-15T23:49:41.082Z,2.25
2023-04-15T23:55:44.749Z,2.05
2023-04-15T23:58:46.675Z,2.22
